sensor_id;sensor_type;location;lat;lon;timestamp;P1;durP1;ratioP1;P2;durP2;ratioP2
11319;SDS011;5715;48.234;14.320;2023-02-10T00:00:09;3.70;;;3.40;;
11319;SDS011;5715;48.234;14.320;2023-02-10T00:02:58;4.40;;;4.00;;
11319;SDS011;5715;48.234;14.320;2023-02-10T00:05:46;8.03;;;4.20;;
11319;SDS011;5715;48.234;14.320;2023-02-10T00:08:34;4.43;;;3.60;;
11319;SDS011;5715;48.234;14.320;2023-02-10T00:11:22;3.87;;;3.30;;
11319;SDS011;5715;48.234;14.320;2023-02-10T00:14:31;3.83;;;3.57;;
11319;SDS011;5715;48.234;14.320;2023-02-10T00:17:18;10.03;;;4.23;;
11319;SDS011;5715;48.234;14.320;2023-02-10T00:20:06;5.67;;;4.70;;
11319;SDS011;5715;48.234;14.320;2023-02-10T00:22:55;3.50;;;3.23;;
11319;SDS011;5715;48.234;14.320;2023-02-10T00:25:43;5.30;;;4.73;;
11319;SDS011;5715;48.234;14.320;2023-02-10T00:28:31;3.67;;;3.37;;
11319;SDS011;5715;48.234;14.320;2023-02-10T00:31:21;3.43;;;3.13;;
11319;SDS011;5715;48.234;14.320;2023-02-10T00:34:13;4.10;;;3.50;;
11319;SDS011;5715;48.234;14.320;2023-02-10T00:37:03;5.30;;;4.83;;
11319;SDS011;5715;48.234;14.320;2023-02-10T00:39:51;4.33;;;3.93;;
11319;SDS011;5715;48.234;14.320;2023-02-10T00:42:38;7.03;;;4.43;;
11319;SDS011;5715;48.234;14.320;2023-02-10T00:45:26;4.93;;;4.23;;
11319;SDS011;5715;48.234;14.320;2023-02-10T00:48:14;6.07;;;4.73;;
11319;SDS011;5715;48.234;14.320;2023-02-10T00:51:02;3.43;;;3.17;;
11319;SDS011;5715;48.234;14.320;2023-02-10T00:53:50;15.87;;;4.53;;
11319;SDS011;5715;48.234;14.320;2023-02-10T00:56:39;4.43;;;3.43;;
11319;SDS011;5715;48.234;14.320;2023-02-10T00:59:27;4.90;;;4.43;;
11319;SDS011;5715;48.234;14.320;2023-02-10T01:02:15;5.10;;;3.77;;
11319;SDS011;5715;48.234;14.320;2023-02-10T01:05:02;3.00;;;2.80;;
11319;SDS011;5715;48.234;14.320;2023-02-10T01:07:50;6.77;;;2.93;;
11319;SDS011;5715;48.234;14.320;2023-02-10T01:10:39;5.17;;;3.67;;
11319;SDS011;5715;48.234;14.320;2023-02-10T01:13:27;3.10;;;2.90;;
11319;SDS011;5715;48.234;14.320;2023-02-10T01:16:16;5.20;;;4.20;;
11319;SDS011;5715;48.234;14.320;2023-02-10T01:19:03;5.13;;;4.03;;
11319;SDS011;5715;48.234;14.320;2023-02-10T01:21:51;4.03;;;3.63;;
11319;SDS011;5715;48.234;14.320;2023-02-10T01:24:39;5.73;;;4.07;;
11319;SDS011;5715;48.234;14.320;2023-02-10T01:27:26;4.23;;;3.83;;
11319;SDS011;5715;48.234;14.320;2023-02-10T01:30:14;3.93;;;3.30;;
11319;SDS011;5715;48.234;14.320;2023-02-10T01:33:02;5.20;;;4.13;;
11319;SDS011;5715;48.234;14.320;2023-02-10T01:35:50;3.57;;;3.37;;
11319;SDS011;5715;48.234;14.320;2023-02-10T01:38:37;4.17;;;3.83;;
11319;SDS011;5715;48.234;14.320;2023-02-10T01:41:26;3.17;;;2.97;;
11319;SDS011;5715;48.234;14.320;2023-02-10T01:47:08;4.93;;;4.43;;
11319;SDS011;5715;48.234;14.320;2023-02-10T01:49:56;7.30;;;4.40;;
11319;SDS011;5715;48.234;14.320;2023-02-10T01:52:43;3.73;;;3.43;;
11319;SDS011;5715;48.234;14.320;2023-02-10T01:55:33;4.67;;;4.03;;
11319;SDS011;5715;48.234;14.320;2023-02-10T01:58:25;4.57;;;4.13;;
11319;SDS011;5715;48.234;14.320;2023-02-10T02:01:16;7.53;;;4.97;;
11319;SDS011;5715;48.234;14.320;2023-02-10T02:04:05;3.67;;;3.43;;
11319;SDS011;5715;48.234;14.320;2023-02-10T02:06:52;4.27;;;3.87;;
11319;SDS011;5715;48.234;14.320;2023-02-10T02:09:40;8.23;;;3.40;;
11319;SDS011;5715;48.234;14.320;2023-02-10T02:23:11;4.67;;;3.80;;
11319;SDS011;5715;48.234;14.320;2023-02-10T02:26:19;6.10;;;4.53;;
11319;SDS011;5715;48.234;14.320;2023-02-10T02:32:33;5.00;;;4.43;;
11319;SDS011;5715;48.234;14.320;2023-02-10T02:35:41;4.87;;;3.77;;
11319;SDS011;5715;48.234;14.320;2023-02-10T02:38:40;5.83;;;3.60;;
11319;SDS011;5715;48.234;14.320;2023-02-10T02:41:29;4.77;;;4.27;;
11319;SDS011;5715;48.234;14.320;2023-02-10T02:44:19;5.07;;;4.03;;
11319;SDS011;5715;48.234;14.320;2023-02-10T02:50:51;3.87;;;3.67;;
11319;SDS011;5715;48.234;14.320;2023-02-10T02:54:27;2.77;;;2.57;;
11319;SDS011;5715;48.234;14.320;2023-02-10T02:57:54;7.13;;;4.13;;
11319;SDS011;5715;48.234;14.320;2023-02-10T03:00:47;3.80;;;3.50;;
11319;SDS011;5715;48.234;14.320;2023-02-10T03:03:40;3.97;;;3.00;;
11319;SDS011;5715;48.234;14.320;2023-02-10T03:06:28;5.93;;;4.40;;
11319;SDS011;5715;48.234;14.320;2023-02-10T03:09:16;4.50;;;4.17;;
11319;SDS011;5715;48.234;14.320;2023-02-10T03:12:04;3.50;;;3.20;;
11319;SDS011;5715;48.234;14.320;2023-02-10T03:14:52;4.30;;;4.00;;
11319;SDS011;5715;48.234;14.320;2023-02-10T03:17:40;3.93;;;3.63;;
11319;SDS011;5715;48.234;14.320;2023-02-10T03:20:27;4.07;;;3.43;;
11319;SDS011;5715;48.234;14.320;2023-02-10T03:23:15;7.17;;;5.33;;
11319;SDS011;5715;48.234;14.320;2023-02-10T03:26:03;4.50;;;4.07;;
11319;SDS011;5715;48.234;14.320;2023-02-10T03:28:50;5.27;;;4.10;;
11319;SDS011;5715;48.234;14.320;2023-02-10T03:31:38;10.93;;;5.47;;
11319;SDS011;5715;48.234;14.320;2023-02-10T03:34:26;6.60;;;3.97;;
11319;SDS011;5715;48.234;14.320;2023-02-10T03:37:14;2.97;;;2.73;;
11319;SDS011;5715;48.234;14.320;2023-02-10T03:40:02;6.80;;;2.93;;
11319;SDS011;5715;48.234;14.320;2023-02-10T03:42:50;4.60;;;4.23;;
11319;SDS011;5715;48.234;14.320;2023-02-10T03:45:38;5.00;;;4.50;;
11319;SDS011;5715;48.234;14.320;2023-02-10T03:48:26;3.80;;;3.50;;
11319;SDS011;5715;48.234;14.320;2023-02-10T03:51:17;4.03;;;3.67;;
11319;SDS011;5715;48.234;14.320;2023-02-10T03:54:05;3.23;;;3.03;;
11319;SDS011;5715;48.234;14.320;2023-02-10T03:56:53;4.33;;;3.93;;
11319;SDS011;5715;48.234;14.320;2023-02-10T03:59:40;3.23;;;2.93;;
11319;SDS011;5715;48.234;14.320;2023-02-10T04:02:28;5.17;;;4.63;;
11319;SDS011;5715;48.234;14.320;2023-02-10T04:05:15;5.80;;;5.23;;
11319;SDS011;5715;48.234;14.320;2023-02-10T04:08:03;6.00;;;4.43;;
11319;SDS011;5715;48.234;14.320;2023-02-10T04:10:52;8.83;;;4.03;;
11319;SDS011;5715;48.234;14.320;2023-02-10T04:13:40;7.37;;;5.57;;
11319;SDS011;5715;48.234;14.320;2023-02-10T04:16:28;3.67;;;3.33;;
11319;SDS011;5715;48.234;14.320;2023-02-10T04:19:16;5.07;;;2.87;;
11319;SDS011;5715;48.234;14.320;2023-02-10T04:22:04;6.10;;;4.70;;
11319;SDS011;5715;48.234;14.320;2023-02-10T04:24:52;4.30;;;3.90;;
11319;SDS011;5715;48.234;14.320;2023-02-10T04:27:39;4.20;;;3.67;;
11319;SDS011;5715;48.234;14.320;2023-02-10T04:30:27;6.27;;;4.20;;
11319;SDS011;5715;48.234;14.320;2023-02-10T04:33:15;4.67;;;4.27;;
11319;SDS011;5715;48.234;14.320;2023-02-10T04:36:02;6.57;;;4.13;;
11319;SDS011;5715;48.234;14.320;2023-02-10T04:38:52;3.93;;;3.57;;
11319;SDS011;5715;48.234;14.320;2023-02-10T04:41:40;7.87;;;4.97;;
11319;SDS011;5715;48.234;14.320;2023-02-10T04:44:28;10.40;;;4.33;;
11319;SDS011;5715;48.234;14.320;2023-02-10T04:47:16;6.20;;;3.67;;
11319;SDS011;5715;48.234;14.320;2023-02-10T04:50:03;3.63;;;3.40;;
11319;SDS011;5715;48.234;14.320;2023-02-10T04:52:52;12.57;;;3.33;;
11319;SDS011;5715;48.234;14.320;2023-02-10T04:55:39;8.90;;;4.33;;
11319;SDS011;5715;48.234;14.320;2023-02-10T04:58:27;4.10;;;3.77;;
11319;SDS011;5715;48.234;14.320;2023-02-10T05:01:14;3.80;;;3.50;;
11319;SDS011;5715;48.234;14.320;2023-02-10T05:04:02;3.43;;;3.13;;
11319;SDS011;5715;48.234;14.320;2023-02-10T05:06:50;5.47;;;4.60;;
11319;SDS011;5715;48.234;14.320;2023-02-10T05:09:37;5.60;;;3.13;;
11319;SDS011;5715;48.234;14.320;2023-02-10T05:12:25;3.17;;;2.97;;
11319;SDS011;5715;48.234;14.320;2023-02-10T05:15:13;3.33;;;3.03;;
11319;SDS011;5715;48.234;14.320;2023-02-10T05:18:00;7.37;;;3.60;;
11319;SDS011;5715;48.234;14.320;2023-02-10T05:20:48;3.33;;;3.07;;
11319;SDS011;5715;48.234;14.320;2023-02-10T05:23:36;4.17;;;3.83;;
11319;SDS011;5715;48.234;14.320;2023-02-10T05:26:23;3.77;;;3.47;;
11319;SDS011;5715;48.234;14.320;2023-02-10T05:29:11;6.03;;;3.93;;
11319;SDS011;5715;48.234;14.320;2023-02-10T05:31:59;4.47;;;4.00;;
11319;SDS011;5715;48.234;14.320;2023-02-10T05:34:47;5.90;;;5.30;;
11319;SDS011;5715;48.234;14.320;2023-02-10T05:37:34;5.87;;;5.37;;
11319;SDS011;5715;48.234;14.320;2023-02-10T05:40:22;6.47;;;4.53;;
11319;SDS011;5715;48.234;14.320;2023-02-10T05:43:10;4.13;;;3.77;;
11319;SDS011;5715;48.234;14.320;2023-02-10T05:45:57;5.90;;;4.20;;
11319;SDS011;5715;48.234;14.320;2023-02-10T05:48:45;8.03;;;5.93;;
11319;SDS011;5715;48.234;14.320;2023-02-10T05:51:32;4.63;;;4.27;;
11319;SDS011;5715;48.234;14.320;2023-02-10T05:54:20;4.50;;;4.13;;
11319;SDS011;5715;48.234;14.320;2023-02-10T05:57:08;5.27;;;3.83;;
11319;SDS011;5715;48.234;14.320;2023-02-10T05:59:55;7.33;;;4.87;;
11319;SDS011;5715;48.234;14.320;2023-02-10T06:02:43;13.70;;;5.87;;
11319;SDS011;5715;48.234;14.320;2023-02-10T06:05:30;4.30;;;4.00;;
11319;SDS011;5715;48.234;14.320;2023-02-10T06:08:18;3.83;;;3.63;;
11319;SDS011;5715;48.234;14.320;2023-02-10T06:11:06;5.50;;;5.10;;
11319;SDS011;5715;48.234;14.320;2023-02-10T06:13:53;4.60;;;4.20;;
11319;SDS011;5715;48.234;14.320;2023-02-10T06:16:41;4.40;;;4.03;;
11319;SDS011;5715;48.234;14.320;2023-02-10T06:19:29;4.00;;;3.70;;
11319;SDS011;5715;48.234;14.320;2023-02-10T06:22:16;4.40;;;4.10;;
11319;SDS011;5715;48.234;14.320;2023-02-10T06:25:04;3.37;;;2.90;;
11319;SDS011;5715;48.234;14.320;2023-02-10T06:27:52;5.13;;;4.73;;
11319;SDS011;5715;48.234;14.320;2023-02-10T06:30:41;3.93;;;3.63;;
11319;SDS011;5715;48.234;14.320;2023-02-10T06:33:29;5.97;;;5.10;;
11319;SDS011;5715;48.234;14.320;2023-02-10T06:36:17;5.07;;;3.80;;
11319;SDS011;5715;48.234;14.320;2023-02-10T06:39:04;5.63;;;5.10;;
11319;SDS011;5715;48.234;14.320;2023-02-10T06:41:52;9.97;;;4.13;;
11319;SDS011;5715;48.234;14.320;2023-02-10T06:44:39;4.97;;;4.37;;
11319;SDS011;5715;48.234;14.320;2023-02-10T06:47:27;5.37;;;4.53;;
11319;SDS011;5715;48.234;14.320;2023-02-10T06:50:15;6.73;;;3.80;;
11319;SDS011;5715;48.234;14.320;2023-02-10T06:53:04;16.87;;;6.70;;
11319;SDS011;5715;48.234;14.320;2023-02-10T06:55:55;22.70;;;5.27;;
11319;SDS011;5715;48.234;14.320;2023-02-10T06:58:43;5.87;;;5.33;;
11319;SDS011;5715;48.234;14.320;2023-02-10T07:01:31;4.40;;;3.87;;
11319;SDS011;5715;48.234;14.320;2023-02-10T07:04:19;4.23;;;3.83;;
11319;SDS011;5715;48.234;14.320;2023-02-10T07:07:06;3.80;;;3.50;;
11319;SDS011;5715;48.234;14.320;2023-02-10T07:09:54;5.23;;;4.20;;
11319;SDS011;5715;48.234;14.320;2023-02-10T07:12:42;3.90;;;3.33;;
11319;SDS011;5715;48.234;14.320;2023-02-10T07:15:32;4.10;;;3.70;;
11319;SDS011;5715;48.234;14.320;2023-02-10T07:18:20;3.07;;;2.87;;
11319;SDS011;5715;48.234;14.320;2023-02-10T07:21:08;8.87;;;4.67;;
11319;SDS011;5715;48.234;14.320;2023-02-10T07:23:55;6.10;;;5.50;;
11319;SDS011;5715;48.234;14.320;2023-02-10T07:26:43;7.00;;;5.73;;
11319;SDS011;5715;48.234;14.320;2023-02-10T07:29:31;6.47;;;5.10;;
11319;SDS011;5715;48.234;14.320;2023-02-10T07:32:22;3.03;;;2.83;;
11319;SDS011;5715;48.234;14.320;2023-02-10T07:35:10;6.27;;;4.63;;
11319;SDS011;5715;48.234;14.320;2023-02-10T07:37:58;5.03;;;3.93;;
11319;SDS011;5715;48.234;14.320;2023-02-10T07:40:46;6.43;;;5.83;;
11319;SDS011;5715;48.234;14.320;2023-02-10T07:43:33;7.10;;;5.53;;
11319;SDS011;5715;48.234;14.320;2023-02-10T07:46:21;4.47;;;3.97;;
11319;SDS011;5715;48.234;14.320;2023-02-10T07:49:09;8.37;;;6.50;;
11319;SDS011;5715;48.234;14.320;2023-02-10T07:51:57;7.03;;;6.30;;
11319;SDS011;5715;48.234;14.320;2023-02-10T07:54:45;5.00;;;4.60;;
11319;SDS011;5715;48.234;14.320;2023-02-10T07:57:32;6.53;;;5.93;;
11319;SDS011;5715;48.234;14.320;2023-02-10T08:00:20;6.17;;;5.07;;
11319;SDS011;5715;48.234;14.320;2023-02-10T08:03:11;11.63;;;7.57;;
11319;SDS011;5715;48.234;14.320;2023-02-10T08:06:01;5.97;;;5.57;;
11319;SDS011;5715;48.234;14.320;2023-02-10T08:08:49;6.27;;;5.00;;
11319;SDS011;5715;48.234;14.320;2023-02-10T08:11:37;7.93;;;6.77;;
11319;SDS011;5715;48.234;14.320;2023-02-10T08:14:25;6.90;;;6.23;;
11319;SDS011;5715;48.234;14.320;2023-02-10T08:17:13;7.60;;;6.73;;
11319;SDS011;5715;48.234;14.320;2023-02-10T08:20:00;8.10;;;6.73;;
11319;SDS011;5715;48.234;14.320;2023-02-10T08:22:48;6.90;;;6.23;;
11319;SDS011;5715;48.234;14.320;2023-02-10T08:25:40;5.43;;;5.03;;
11319;SDS011;5715;48.234;14.320;2023-02-10T08:28:29;7.83;;;6.57;;
11319;SDS011;5715;48.234;14.320;2023-02-10T08:31:16;9.87;;;6.67;;
11319;SDS011;5715;48.234;14.320;2023-02-10T08:34:05;14.67;;;7.60;;
11319;SDS011;5715;48.234;14.320;2023-02-10T08:36:57;5.47;;;4.97;;
11319;SDS011;5715;48.234;14.320;2023-02-10T08:39:45;5.07;;;4.60;;
11319;SDS011;5715;48.234;14.320;2023-02-10T08:42:33;5.73;;;4.40;;
11319;SDS011;5715;48.234;14.320;2023-02-10T08:45:21;7.13;;;6.43;;
11319;SDS011;5715;48.234;14.320;2023-02-10T08:48:08;7.27;;;5.17;;
11319;SDS011;5715;48.234;14.320;2023-02-10T08:50:56;6.30;;;5.80;;
11319;SDS011;5715;48.234;14.320;2023-02-10T08:53:45;5.47;;;5.07;;
11319;SDS011;5715;48.234;14.320;2023-02-10T08:56:32;7.90;;;7.20;;
11319;SDS011;5715;48.234;14.320;2023-02-10T08:59:20;5.87;;;5.37;;
11319;SDS011;5715;48.234;14.320;2023-02-10T09:02:09;6.80;;;5.33;;
11319;SDS011;5715;48.234;14.320;2023-02-10T09:04:59;9.73;;;6.43;;
11319;SDS011;5715;48.234;14.320;2023-02-10T09:07:56;8.33;;;5.80;;
11319;SDS011;5715;48.234;14.320;2023-02-10T09:10:44;8.53;;;6.20;;
11319;SDS011;5715;48.234;14.320;2023-02-10T09:13:32;10.60;;;6.93;;
11319;SDS011;5715;48.234;14.320;2023-02-10T09:16:20;6.43;;;5.77;;
11319;SDS011;5715;48.234;14.320;2023-02-10T09:19:08;8.87;;;8.23;;
11319;SDS011;5715;48.234;14.320;2023-02-10T09:21:56;9.33;;;6.40;;
11319;SDS011;5715;48.234;14.320;2023-02-10T09:24:44;6.77;;;6.10;;
11319;SDS011;5715;48.234;14.320;2023-02-10T09:27:33;8.80;;;6.50;;
11319;SDS011;5715;48.234;14.320;2023-02-10T09:30:21;13.77;;;8.07;;
11319;SDS011;5715;48.234;14.320;2023-02-10T09:33:09;9.63;;;6.37;;
11319;SDS011;5715;48.234;14.320;2023-02-10T09:35:56;5.97;;;5.10;;
11319;SDS011;5715;48.234;14.320;2023-02-10T09:38:44;11.60;;;6.13;;
11319;SDS011;5715;48.234;14.320;2023-02-10T09:44:24;15.57;;;8.60;;
11319;SDS011;5715;48.234;14.320;2023-02-10T09:53:19;18.77;;;8.77;;
11319;SDS011;5715;48.234;14.320;2023-02-10T09:56:17;15.00;;;10.33;;
11319;SDS011;5715;48.234;14.320;2023-02-10T09:59:10;12.17;;;6.83;;
11319;SDS011;5715;48.234;14.320;2023-02-10T10:02:28;15.20;;;9.17;;
11319;SDS011;5715;48.234;14.320;2023-02-10T10:05:40;18.60;;;11.03;;
11319;SDS011;5715;48.234;14.320;2023-02-10T10:11:56;23.97;;;7.63;;
11319;SDS011;5715;48.234;14.320;2023-02-10T10:14:46;9.60;;;7.53;;
11319;SDS011;5715;48.234;14.320;2023-02-10T10:17:50;18.57;;;9.10;;
11319;SDS011;5715;48.234;14.320;2023-02-10T10:21:05;14.07;;;6.97;;
11319;SDS011;5715;48.234;14.320;2023-02-10T10:24:23;23.87;;;9.20;;
11319;SDS011;5715;48.234;14.320;2023-02-10T10:27:27;12.77;;;7.00;;
11319;SDS011;5715;48.234;14.320;2023-02-10T10:39:37;16.23;;;8.70;;
11319;SDS011;5715;48.234;14.320;2023-02-10T10:42:44;14.20;;;10.13;;
11319;SDS011;5715;48.234;14.320;2023-02-10T10:45:40;11.73;;;7.37;;
11319;SDS011;5715;48.234;14.320;2023-02-10T10:48:40;17.73;;;8.07;;
11319;SDS011;5715;48.234;14.320;2023-02-10T10:51:29;16.10;;;7.90;;
11319;SDS011;5715;48.234;14.320;2023-02-10T10:54:18;12.63;;;8.67;;
11319;SDS011;5715;48.234;14.320;2023-02-10T10:57:08;11.47;;;7.83;;
11319;SDS011;5715;48.234;14.320;2023-02-10T11:00:26;23.83;;;12.07;;
11319;SDS011;5715;48.234;14.320;2023-02-10T11:03:16;15.83;;;9.27;;
11319;SDS011;5715;48.234;14.320;2023-02-10T11:06:11;32.33;;;7.87;;
11319;SDS011;5715;48.234;14.320;2023-02-10T11:09:05;15.10;;;9.43;;
11319;SDS011;5715;48.234;14.320;2023-02-10T11:12:15;19.07;;;8.70;;
11319;SDS011;5715;48.234;14.320;2023-02-10T11:18:26;16.97;;;9.43;;
11319;SDS011;5715;48.234;14.320;2023-02-10T11:21:14;14.87;;;9.50;;
11319;SDS011;5715;48.234;14.320;2023-02-10T11:24:02;12.03;;;7.47;;
11319;SDS011;5715;48.234;14.320;2023-02-10T11:27:03;19.47;;;8.53;;
11319;SDS011;5715;48.234;14.320;2023-02-10T11:29:59;17.30;;;9.10;;
11319;SDS011;5715;48.234;14.320;2023-02-10T11:32:48;16.37;;;7.80;;
11319;SDS011;5715;48.234;14.320;2023-02-10T11:35:39;12.30;;;7.00;;
11319;SDS011;5715;48.234;14.320;2023-02-10T11:38:40;14.13;;;7.83;;
11319;SDS011;5715;48.234;14.320;2023-02-10T11:41:30;15.97;;;9.63;;
11319;SDS011;5715;48.234;14.320;2023-02-10T11:47:16;14.93;;;8.80;;
11319;SDS011;5715;48.234;14.320;2023-02-10T11:50:16;14.23;;;7.73;;
11319;SDS011;5715;48.234;14.320;2023-02-10T11:53:21;12.07;;;6.77;;
11319;SDS011;5715;48.234;14.320;2023-02-10T12:00:19;13.33;;;8.00;;
11319;SDS011;5715;48.234;14.320;2023-02-10T12:07:25;18.80;;;8.90;;
11319;SDS011;5715;48.234;14.320;2023-02-10T12:32:41;13.33;;;8.10;;
11319;SDS011;5715;48.234;14.320;2023-02-10T12:52:17;14.23;;;7.57;;
11319;SDS011;5715;48.234;14.320;2023-02-10T12:55:48;14.37;;;7.60;;
11319;SDS011;5715;48.234;14.320;2023-02-10T12:58:47;12.63;;;8.00;;
11319;SDS011;5715;48.234;14.320;2023-02-10T13:01:56;14.73;;;9.20;;
11319;SDS011;5715;48.234;14.320;2023-02-10T13:05:07;16.53;;;7.80;;
11319;SDS011;5715;48.234;14.320;2023-02-10T13:08:01;13.77;;;8.57;;
11319;SDS011;5715;48.234;14.320;2023-02-10T13:10:57;14.00;;;8.70;;
11319;SDS011;5715;48.234;14.320;2023-02-10T13:13:52;14.43;;;7.53;;
11319;SDS011;5715;48.234;14.320;2023-02-10T13:16:42;11.73;;;6.93;;
11319;SDS011;5715;48.234;14.320;2023-02-10T13:19:55;16.20;;;7.63;;
11319;SDS011;5715;48.234;14.320;2023-02-10T13:40:13;10.33;;;6.83;;
11319;SDS011;5715;48.234;14.320;2023-02-10T13:43:06;13.80;;;7.93;;
11319;SDS011;5715;48.234;14.320;2023-02-10T13:46:20;12.10;;;7.33;;
11319;SDS011;5715;48.234;14.320;2023-02-10T13:49:16;9.47;;;5.60;;
11319;SDS011;5715;48.234;14.320;2023-02-10T13:52:11;19.07;;;6.70;;
11319;SDS011;5715;48.234;14.320;2023-02-10T14:00:51;9.33;;;6.00;;
11319;SDS011;5715;48.234;14.320;2023-02-10T14:03:41;15.37;;;7.63;;
11319;SDS011;5715;48.234;14.320;2023-02-10T14:06:32;9.83;;;6.13;;
11319;SDS011;5715;48.234;14.320;2023-02-10T14:12:23;11.13;;;5.13;;
11319;SDS011;5715;48.234;14.320;2023-02-10T14:15:23;8.93;;;5.43;;
11319;SDS011;5715;48.234;14.320;2023-02-10T14:18:31;13.07;;;7.27;;
11319;SDS011;5715;48.234;14.320;2023-02-10T14:21:22;12.43;;;4.53;;
11319;SDS011;5715;48.234;14.320;2023-02-10T14:24:14;8.93;;;5.53;;
11319;SDS011;5715;48.234;14.320;2023-02-10T14:27:13;10.97;;;5.27;;
11319;SDS011;5715;48.234;14.320;2023-02-10T14:33:19;9.57;;;5.30;;
11319;SDS011;5715;48.234;14.320;2023-02-10T14:36:17;11.17;;;6.13;;
11319;SDS011;5715;48.234;14.320;2023-02-10T14:39:06;11.40;;;6.20;;
11319;SDS011;5715;48.234;14.320;2023-02-10T14:42:03;10.30;;;6.10;;
11319;SDS011;5715;48.234;14.320;2023-02-10T14:44:59;10.97;;;6.10;;
11319;SDS011;5715;48.234;14.320;2023-02-10T14:47:50;12.13;;;5.83;;
11319;SDS011;5715;48.234;14.320;2023-02-10T14:50:43;13.90;;;5.63;;
11319;SDS011;5715;48.234;14.320;2023-02-10T14:53:31;10.07;;;6.00;;
11319;SDS011;5715;48.234;14.320;2023-02-10T14:56:24;14.50;;;6.03;;
11319;SDS011;5715;48.234;14.320;2023-02-10T14:59:19;9.87;;;5.83;;
11319;SDS011;5715;48.234;14.320;2023-02-10T15:02:20;11.53;;;6.80;;
11319;SDS011;5715;48.234;14.320;2023-02-10T15:05:16;11.90;;;7.03;;
11319;SDS011;5715;48.234;14.320;2023-02-10T15:08:07;11.80;;;6.17;;
11319;SDS011;5715;48.234;14.320;2023-02-10T15:11:05;10.70;;;6.30;;
11319;SDS011;5715;48.234;14.320;2023-02-10T15:14:00;14.17;;;5.67;;
11319;SDS011;5715;48.234;14.320;2023-02-10T15:16:47;14.27;;;5.80;;
11319;SDS011;5715;48.234;14.320;2023-02-10T15:19:54;8.33;;;4.90;;
11319;SDS011;5715;48.234;14.320;2023-02-10T15:25:43;10.10;;;6.10;;
11319;SDS011;5715;48.234;14.320;2023-02-10T15:28:31;11.73;;;5.60;;
11319;SDS011;5715;48.234;14.320;2023-02-10T15:31:25;11.87;;;6.57;;
11319;SDS011;5715;48.234;14.320;2023-02-10T15:34:22;9.23;;;6.17;;
11319;SDS011;5715;48.234;14.320;2023-02-10T15:37:21;9.43;;;6.10;;
11319;SDS011;5715;48.234;14.320;2023-02-10T15:40:23;10.87;;;4.97;;
11319;SDS011;5715;48.234;14.320;2023-02-10T15:43:24;10.73;;;5.80;;
11319;SDS011;5715;48.234;14.320;2023-02-10T15:46:18;14.93;;;6.57;;
11319;SDS011;5715;48.234;14.320;2023-02-10T15:49:11;9.03;;;4.93;;
11319;SDS011;5715;48.234;14.320;2023-02-10T15:52:01;11.50;;;6.67;;
11319;SDS011;5715;48.234;14.320;2023-02-10T15:54:50;8.27;;;5.13;;
11319;SDS011;5715;48.234;14.320;2023-02-10T15:57:41;7.53;;;4.63;;
11319;SDS011;5715;48.234;14.320;2023-02-10T16:00:31;9.80;;;5.47;;
11319;SDS011;5715;48.234;14.320;2023-02-10T16:03:21;13.57;;;6.93;;
11319;SDS011;5715;48.234;14.320;2023-02-10T16:06:13;8.47;;;5.03;;
11319;SDS011;5715;48.234;14.320;2023-02-10T16:09:03;10.30;;;6.50;;
11319;SDS011;5715;48.234;14.320;2023-02-10T16:11:51;8.73;;;5.97;;
11319;SDS011;5715;48.234;14.320;2023-02-10T16:14:40;9.77;;;5.53;;
11319;SDS011;5715;48.234;14.320;2023-02-10T16:17:28;14.33;;;5.37;;
11319;SDS011;5715;48.234;14.320;2023-02-10T16:20:27;9.27;;;6.10;;
11319;SDS011;5715;48.234;14.320;2023-02-10T16:23:19;8.00;;;5.53;;
11319;SDS011;5715;48.234;14.320;2023-02-10T16:26:06;7.67;;;4.87;;
11319;SDS011;5715;48.234;14.320;2023-02-10T16:29:18;10.67;;;5.37;;
11319;SDS011;5715;48.234;14.320;2023-02-10T16:32:11;7.23;;;5.60;;
11319;SDS011;5715;48.234;14.320;2023-02-10T16:35:00;10.87;;;5.63;;
11319;SDS011;5715;48.234;14.320;2023-02-10T16:37:47;12.53;;;6.90;;
11319;SDS011;5715;48.234;14.320;2023-02-10T16:40:36;7.73;;;6.37;;
11319;SDS011;5715;48.234;14.320;2023-02-10T16:43:26;6.20;;;5.20;;
11319;SDS011;5715;48.234;14.320;2023-02-10T16:46:14;10.47;;;5.93;;
11319;SDS011;5715;48.234;14.320;2023-02-10T16:49:04;9.67;;;5.27;;
11319;SDS011;5715;48.234;14.320;2023-02-10T16:51:52;9.27;;;5.60;;
11319;SDS011;5715;48.234;14.320;2023-02-10T16:54:40;11.50;;;6.83;;
11319;SDS011;5715;48.234;14.320;2023-02-10T16:57:28;11.30;;;7.00;;
11319;SDS011;5715;48.234;14.320;2023-02-10T17:00:17;9.33;;;6.17;;
11319;SDS011;5715;48.234;14.320;2023-02-10T17:03:06;8.93;;;6.07;;
11319;SDS011;5715;48.234;14.320;2023-02-10T17:05:54;10.53;;;7.27;;
11319;SDS011;5715;48.234;14.320;2023-02-10T17:08:42;8.23;;;4.33;;
11319;SDS011;5715;48.234;14.320;2023-02-10T17:11:30;15.33;;;6.47;;
11319;SDS011;5715;48.234;14.320;2023-02-10T17:14:17;6.03;;;5.10;;
11319;SDS011;5715;48.234;14.320;2023-02-10T17:17:05;10.87;;;8.70;;
11319;SDS011;5715;48.234;14.320;2023-02-10T17:19:52;4.57;;;3.83;;
11319;SDS011;5715;48.234;14.320;2023-02-10T17:22:40;10.83;;;6.63;;
11319;SDS011;5715;48.234;14.320;2023-02-10T17:25:29;7.43;;;5.57;;
11319;SDS011;5715;48.234;14.320;2023-02-10T17:28:17;8.20;;;5.80;;
11319;SDS011;5715;48.234;14.320;2023-02-10T17:31:05;12.23;;;6.03;;
11319;SDS011;5715;48.234;14.320;2023-02-10T17:33:53;8.57;;;4.73;;
11319;SDS011;5715;48.234;14.320;2023-02-10T17:36:47;11.53;;;6.47;;
11319;SDS011;5715;48.234;14.320;2023-02-10T17:39:35;9.93;;;5.43;;
11319;SDS011;5715;48.234;14.320;2023-02-10T17:42:27;5.87;;;5.30;;
11319;SDS011;5715;48.234;14.320;2023-02-10T17:45:17;7.93;;;5.00;;
11319;SDS011;5715;48.234;14.320;2023-02-10T17:48:05;15.77;;;12.77;;
11319;SDS011;5715;48.234;14.320;2023-02-10T17:50:58;14.30;;;7.77;;
11319;SDS011;5715;48.234;14.320;2023-02-10T17:53:50;7.13;;;4.67;;
11319;SDS011;5715;48.234;14.320;2023-02-10T17:56:38;8.30;;;6.07;;
11319;SDS011;5715;48.234;14.320;2023-02-10T17:59:26;9.43;;;5.77;;
11319;SDS011;5715;48.234;14.320;2023-02-10T18:02:14;9.83;;;5.07;;
11319;SDS011;5715;48.234;14.320;2023-02-10T18:05:01;10.97;;;5.33;;
11319;SDS011;5715;48.234;14.320;2023-02-10T18:07:49;4.97;;;4.47;;
11319;SDS011;5715;48.234;14.320;2023-02-10T18:10:37;9.83;;;5.57;;
11319;SDS011;5715;48.234;14.320;2023-02-10T18:13:25;13.13;;;4.80;;
11319;SDS011;5715;48.234;14.320;2023-02-10T18:16:13;11.93;;;6.17;;
11319;SDS011;5715;48.234;14.320;2023-02-10T18:19:02;10.77;;;6.50;;
11319;SDS011;5715;48.234;14.320;2023-02-10T18:21:50;6.30;;;5.57;;
11319;SDS011;5715;48.234;14.320;2023-02-10T18:24:38;8.40;;;5.47;;
11319;SDS011;5715;48.234;14.320;2023-02-10T18:27:25;9.60;;;5.23;;
11319;SDS011;5715;48.234;14.320;2023-02-10T18:30:14;7.27;;;5.07;;
11319;SDS011;5715;48.234;14.320;2023-02-10T18:33:02;17.70;;;6.53;;
11319;SDS011;5715;48.234;14.320;2023-02-10T18:35:49;14.00;;;6.13;;
11319;SDS011;5715;48.234;14.320;2023-02-10T18:38:37;15.83;;;6.77;;
11319;SDS011;5715;48.234;14.320;2023-02-10T18:41:25;6.03;;;4.60;;
11319;SDS011;5715;48.234;14.320;2023-02-10T18:44:13;5.50;;;4.87;;
11319;SDS011;5715;48.234;14.320;2023-02-10T18:47:01;8.53;;;5.27;;
11319;SDS011;5715;48.234;14.320;2023-02-10T18:49:48;5.40;;;3.53;;
11319;SDS011;5715;48.234;14.320;2023-02-10T18:52:36;10.80;;;5.80;;
11319;SDS011;5715;48.234;14.320;2023-02-10T18:55:25;10.23;;;4.80;;
11319;SDS011;5715;48.234;14.320;2023-02-10T18:58:13;7.27;;;5.00;;
11319;SDS011;5715;48.234;14.320;2023-02-10T19:01:05;15.23;;;6.47;;
11319;SDS011;5715;48.234;14.320;2023-02-10T19:03:56;6.90;;;5.37;;
11319;SDS011;5715;48.234;14.320;2023-02-10T19:06:49;13.23;;;6.00;;
11319;SDS011;5715;48.234;14.320;2023-02-10T19:09:37;7.90;;;5.93;;
11319;SDS011;5715;48.234;14.320;2023-02-10T19:12:25;10.13;;;6.40;;